sensor_id;sensor_type;location;lat;lon;timestamp;P1;durP1;ratioP1;P2;durP2;ratioP2
78891;SDS011;68368;51.728;5.248;2023-03-24T00:01:03;3.80;;;1.70;;
78891;SDS011;68368;51.728;5.248;2023-03-24T00:03:07;5.00;;;1.90;;
78891;SDS011;68368;51.728;5.248;2023-03-24T00:05:11;4.20;;;1.70;;
78891;SDS011;68368;51.728;5.248;2023-03-24T00:07:18;5.80;;;2.20;;
78891;SDS011;68368;51.728;5.248;2023-03-24T00:09:21;4.10;;;1.90;;
78891;SDS011;68368;51.728;5.248;2023-03-24T00:11:27;4.10;;;1.70;;
78891;SDS011;68368;51.728;5.248;2023-03-24T00:13:30;4.20;;;2.20;;
78891;SDS011;68368;51.728;5.248;2023-03-24T00:15:35;3.90;;;2.00;;
78891;SDS011;68368;51.728;5.248;2023-03-24T00:17:39;4.30;;;1.60;;
78891;SDS011;68368;51.728;5.248;2023-03-24T00:19:42;5.20;;;1.90;;
78891;SDS011;68368;51.728;5.248;2023-03-24T00:21:48;3.60;;;2.00;;
78891;SDS011;68368;51.728;5.248;2023-03-24T00:23:52;4.00;;;1.90;;
78891;SDS011;68368;51.728;5.248;2023-03-24T00:26:01;4.70;;;2.10;;
78891;SDS011;68368;51.728;5.248;2023-03-24T00:28:05;5.20;;;2.00;;
78891;SDS011;68368;51.728;5.248;2023-03-24T00:30:11;3.80;;;1.70;;
78891;SDS011;68368;51.728;5.248;2023-03-24T00:32:16;3.60;;;2.10;;
78891;SDS011;68368;51.728;5.248;2023-03-24T00:34:19;3.60;;;1.90;;
78891;SDS011;68368;51.728;5.248;2023-03-24T00:36:24;3.30;;;1.90;;
78891;SDS011;68368;51.728;5.248;2023-03-24T00:38:28;3.70;;;1.80;;
78891;SDS011;68368;51.728;5.248;2023-03-24T00:40:34;3.80;;;1.80;;
78891;SDS011;68368;51.728;5.248;2023-03-24T00:42:45;4.40;;;2.10;;
78891;SDS011;68368;51.728;5.248;2023-03-24T00:44:50;6.10;;;2.00;;
78891;SDS011;68368;51.728;5.248;2023-03-24T00:46:54;4.40;;;1.70;;
78891;SDS011;68368;51.728;5.248;2023-03-24T00:48:58;4.80;;;2.80;;
78891;SDS011;68368;51.728;5.248;2023-03-24T00:51:03;5.30;;;1.80;;
78891;SDS011;68368;51.728;5.248;2023-03-24T00:53:08;4.20;;;2.30;;
78891;SDS011;68368;51.728;5.248;2023-03-24T00:55:12;5.30;;;2.10;;
78891;SDS011;68368;51.728;5.248;2023-03-24T00:57:16;4.40;;;2.30;;
78891;SDS011;68368;51.728;5.248;2023-03-24T00:59:22;3.00;;;1.90;;
78891;SDS011;68368;51.728;5.248;2023-03-24T01:01:27;3.40;;;2.40;;
78891;SDS011;68368;51.728;5.248;2023-03-24T01:03:35;4.30;;;1.70;;
78891;SDS011;68368;51.728;5.248;2023-03-24T01:05:38;4.30;;;2.00;;
78891;SDS011;68368;51.728;5.248;2023-03-24T01:07:43;4.30;;;2.20;;
78891;SDS011;68368;51.728;5.248;2023-03-24T01:09:51;4.60;;;1.80;;
78891;SDS011;68368;51.728;5.248;2023-03-24T01:11:54;4.00;;;1.70;;
78891;SDS011;68368;51.728;5.248;2023-03-24T01:13:58;3.10;;;1.80;;
78891;SDS011;68368;51.728;5.248;2023-03-24T01:16:04;4.90;;;2.30;;
78891;SDS011;68368;51.728;5.248;2023-03-24T01:18:08;3.20;;;1.80;;
78891;SDS011;68368;51.728;5.248;2023-03-24T01:20:12;3.60;;;2.00;;
78891;SDS011;68368;51.728;5.248;2023-03-24T01:22:16;5.20;;;1.80;;
78891;SDS011;68368;51.728;5.248;2023-03-24T01:24:19;2.70;;;1.70;;
78891;SDS011;68368;51.728;5.248;2023-03-24T01:26:24;4.00;;;1.70;;
78891;SDS011;68368;51.728;5.248;2023-03-24T01:28:28;4.60;;;1.90;;
78891;SDS011;68368;51.728;5.248;2023-03-24T01:30:34;2.60;;;1.70;;
78891;SDS011;68368;51.728;5.248;2023-03-24T01:32:39;3.30;;;1.90;;
78891;SDS011;68368;51.728;5.248;2023-03-24T01:34:42;3.90;;;2.50;;
78891;SDS011;68368;51.728;5.248;2023-03-24T01:36:46;3.10;;;1.80;;
78891;SDS011;68368;51.728;5.248;2023-03-24T01:38:49;5.10;;;1.70;;
78891;SDS011;68368;51.728;5.248;2023-03-24T01:40:55;3.00;;;1.70;;
78891;SDS011;68368;51.728;5.248;2023-03-24T01:42:59;4.30;;;1.90;;
78891;SDS011;68368;51.728;5.248;2023-03-24T01:47:20;4.40;;;2.10;;
78891;SDS011;68368;51.728;5.248;2023-03-24T01:49:24;3.00;;;2.00;;
78891;SDS011;68368;51.728;5.248;2023-03-24T01:51:34;3.30;;;1.80;;
78891;SDS011;68368;51.728;5.248;2023-03-24T01:53:44;3.30;;;1.80;;
78891;SDS011;68368;51.728;5.248;2023-03-24T01:55:52;2.90;;;1.60;;
78891;SDS011;68368;51.728;5.248;2023-03-24T01:57:59;4.90;;;2.80;;
78891;SDS011;68368;51.728;5.248;2023-03-24T02:00:06;2.90;;;1.60;;
78891;SDS011;68368;51.728;5.248;2023-03-24T02:02:11;3.30;;;1.90;;
78891;SDS011;68368;51.728;5.248;2023-03-24T02:04:18;3.40;;;2.00;;
78891;SDS011;68368;51.728;5.248;2023-03-24T02:06:23;3.90;;;1.80;;
78891;SDS011;68368;51.728;5.248;2023-03-24T02:08:29;4.40;;;1.90;;
78891;SDS011;68368;51.728;5.248;2023-03-24T02:10:38;3.70;;;1.70;;
78891;SDS011;68368;51.728;5.248;2023-03-24T02:12:43;3.80;;;2.10;;
78891;SDS011;68368;51.728;5.248;2023-03-24T02:14:49;4.00;;;1.80;;
78891;SDS011;68368;51.728;5.248;2023-03-24T02:17:01;3.40;;;2.10;;
78891;SDS011;68368;51.728;5.248;2023-03-24T02:19:23;3.10;;;1.90;;
78891;SDS011;68368;51.728;5.248;2023-03-24T02:22:06;3.90;;;2.00;;
78891;SDS011;68368;51.728;5.248;2023-03-24T02:24:32;2.80;;;1.70;;
78891;SDS011;68368;51.728;5.248;2023-03-24T02:27:04;4.40;;;1.80;;
78891;SDS011;68368;51.728;5.248;2023-03-24T02:31:51;3.70;;;1.90;;
78891;SDS011;68368;51.728;5.248;2023-03-24T02:34:19;3.80;;;1.60;;
78891;SDS011;68368;51.728;5.248;2023-03-24T02:36:54;2.40;;;1.80;;
78891;SDS011;68368;51.728;5.248;2023-03-24T02:39:18;3.40;;;1.80;;
78891;SDS011;68368;51.728;5.248;2023-03-24T02:41:33;2.00;;;1.20;;
78891;SDS011;68368;51.728;5.248;2023-03-24T02:43:45;2.10;;;0.70;;
78891;SDS011;68368;51.728;5.248;2023-03-24T02:46:06;2.30;;;0.70;;
78891;SDS011;68368;51.728;5.248;2023-03-24T02:48:19;2.80;;;0.60;;
78891;SDS011;68368;51.728;5.248;2023-03-24T02:50:32;1.20;;;0.30;;
78891;SDS011;68368;51.728;5.248;2023-03-24T02:52:44;1.60;;;0.70;;
78891;SDS011;68368;51.728;5.248;2023-03-24T02:54:56;3.30;;;0.70;;
78891;SDS011;68368;51.728;5.248;2023-03-24T02:57:07;2.30;;;0.60;;
78891;SDS011;68368;51.728;5.248;2023-03-24T02:59:17;1.50;;;0.60;;
78891;SDS011;68368;51.728;5.248;2023-03-24T03:01:24;4.20;;;0.70;;
78891;SDS011;68368;51.728;5.248;2023-03-24T03:03:33;2.20;;;0.60;;
78891;SDS011;68368;51.728;5.248;2023-03-24T03:05:41;2.60;;;0.70;;
78891;SDS011;68368;51.728;5.248;2023-03-24T03:07:49;3.30;;;1.50;;
78891;SDS011;68368;51.728;5.248;2023-03-24T03:09:55;2.70;;;0.50;;
78891;SDS011;68368;51.728;5.248;2023-03-24T03:12:02;3.10;;;0.70;;
78891;SDS011;68368;51.728;5.248;2023-03-24T03:16:14;2.20;;;0.60;;
78891;SDS011;68368;51.728;5.248;2023-03-24T03:18:22;2.40;;;0.70;;
78891;SDS011;68368;51.728;5.248;2023-03-24T03:20:28;1.80;;;0.80;;
78891;SDS011;68368;51.728;5.248;2023-03-24T03:22:38;2.20;;;0.70;;
78891;SDS011;68368;51.728;5.248;2023-03-24T03:24:50;1.90;;;0.50;;
78891;SDS011;68368;51.728;5.248;2023-03-24T03:26:57;2.50;;;0.70;;
78891;SDS011;68368;51.728;5.248;2023-03-24T03:29:06;3.50;;;0.80;;
78891;SDS011;68368;51.728;5.248;2023-03-24T03:31:15;5.30;;;0.90;;
78891;SDS011;68368;51.728;5.248;2023-03-24T03:33:24;6.00;;;0.80;;
78891;SDS011;68368;51.728;5.248;2023-03-24T03:35:34;4.90;;;0.90;;
78891;SDS011;68368;51.728;5.248;2023-03-24T03:37:43;7.10;;;2.30;;
78891;SDS011;68368;51.728;5.248;2023-03-24T03:39:50;6.00;;;1.10;;
78891;SDS011;68368;51.728;5.248;2023-03-24T03:41:58;4.10;;;0.80;;
78891;SDS011;68368;51.728;5.248;2023-03-24T03:44:02;5.90;;;1.10;;
78891;SDS011;68368;51.728;5.248;2023-03-24T03:46:08;4.90;;;1.00;;
78891;SDS011;68368;51.728;5.248;2023-03-24T03:48:11;3.70;;;0.90;;
78891;SDS011;68368;51.728;5.248;2023-03-24T03:50:17;5.70;;;1.10;;
78891;SDS011;68368;51.728;5.248;2023-03-24T03:52:20;5.20;;;1.10;;
78891;SDS011;68368;51.728;5.248;2023-03-24T03:54:23;4.90;;;1.00;;
78891;SDS011;68368;51.728;5.248;2023-03-24T03:56:32;5.10;;;1.20;;
78891;SDS011;68368;51.728;5.248;2023-03-24T03:58:37;5.60;;;1.30;;
78891;SDS011;68368;51.728;5.248;2023-03-24T04:00:40;7.50;;;1.30;;
78891;SDS011;68368;51.728;5.248;2023-03-24T04:02:48;5.00;;;1.60;;
78891;SDS011;68368;51.728;5.248;2023-03-24T04:07:31;6.00;;;1.90;;
78891;SDS011;68368;51.728;5.248;2023-03-24T04:09:49;4.90;;;1.10;;
78891;SDS011;68368;51.728;5.248;2023-03-24T04:12:10;5.70;;;1.70;;
78891;SDS011;68368;51.728;5.248;2023-03-24T04:14:35;7.30;;;2.00;;
78891;SDS011;68368;51.728;5.248;2023-03-24T04:17:02;9.40;;;2.20;;
78891;SDS011;68368;51.728;5.248;2023-03-24T04:19:19;5.80;;;2.20;;
78891;SDS011;68368;51.728;5.248;2023-03-24T04:21:39;6.60;;;2.20;;
78891;SDS011;68368;51.728;5.248;2023-03-24T04:23:56;6.10;;;2.00;;
78891;SDS011;68368;51.728;5.248;2023-03-24T04:26:15;8.60;;;2.40;;
78891;SDS011;68368;51.728;5.248;2023-03-24T04:28:28;6.50;;;2.10;;
78891;SDS011;68368;51.728;5.248;2023-03-24T04:30:39;8.70;;;2.40;;
78891;SDS011;68368;51.728;5.248;2023-03-24T04:32:48;6.40;;;2.20;;
78891;SDS011;68368;51.728;5.248;2023-03-24T04:34:57;7.00;;;2.50;;
78891;SDS011;68368;51.728;5.248;2023-03-24T04:37:07;8.80;;;3.10;;
78891;SDS011;68368;51.728;5.248;2023-03-24T04:39:15;8.90;;;2.20;;
78891;SDS011;68368;51.728;5.248;2023-03-24T04:41:22;12.10;;;2.40;;
78891;SDS011;68368;51.728;5.248;2023-03-24T04:43:30;6.90;;;2.40;;
78891;SDS011;68368;51.728;5.248;2023-03-24T04:45:36;9.90;;;2.20;;
78891;SDS011;68368;51.728;5.248;2023-03-24T04:47:41;10.10;;;2.50;;
78891;SDS011;68368;51.728;5.248;2023-03-24T04:49:48;9.50;;;2.80;;
78891;SDS011;68368;51.728;5.248;2023-03-24T04:51:51;10.70;;;2.70;;
78891;SDS011;68368;51.728;5.248;2023-03-24T04:53:56;11.50;;;3.00;;
78891;SDS011;68368;51.728;5.248;2023-03-24T04:56:15;11.10;;;2.30;;
78891;SDS011;68368;51.728;5.248;2023-03-24T04:58:33;7.10;;;1.60;;
78891;SDS011;68368;51.728;5.248;2023-03-24T05:00:39;7.90;;;2.10;;
78891;SDS011;68368;51.728;5.248;2023-03-24T05:02:46;10.00;;;2.20;;
78891;SDS011;68368;51.728;5.248;2023-03-24T05:04:51;9.70;;;2.30;;
78891;SDS011;68368;51.728;5.248;2023-03-24T05:06:55;10.80;;;2.50;;
78891;SDS011;68368;51.728;5.248;2023-03-24T05:08:58;8.30;;;2.10;;
78891;SDS011;68368;51.728;5.248;2023-03-24T05:11:03;9.20;;;1.80;;
78891;SDS011;68368;51.728;5.248;2023-03-24T05:13:08;6.70;;;1.50;;
78891;SDS011;68368;51.728;5.248;2023-03-24T05:15:12;8.30;;;1.90;;
78891;SDS011;68368;51.728;5.248;2023-03-24T05:17:18;8.90;;;2.20;;
78891;SDS011;68368;51.728;5.248;2023-03-24T05:19:21;8.60;;;1.80;;
78891;SDS011;68368;51.728;5.248;2023-03-24T05:21:24;5.40;;;1.80;;
78891;SDS011;68368;51.728;5.248;2023-03-24T05:23:27;9.80;;;2.40;;
78891;SDS011;68368;51.728;5.248;2023-03-24T05:25:31;7.90;;;2.60;;
78891;SDS011;68368;51.728;5.248;2023-03-24T05:27:35;8.60;;;2.60;;
78891;SDS011;68368;51.728;5.248;2023-03-24T05:29:39;15.20;;;2.30;;
78891;SDS011;68368;51.728;5.248;2023-03-24T05:31:42;9.60;;;2.00;;
78891;SDS011;68368;51.728;5.248;2023-03-24T05:33:46;11.60;;;2.60;;
78891;SDS011;68368;51.728;5.248;2023-03-24T05:35:52;9.20;;;2.30;;
78891;SDS011;68368;51.728;5.248;2023-03-24T05:37:56;13.40;;;2.50;;
78891;SDS011;68368;51.728;5.248;2023-03-24T05:39:59;9.90;;;2.90;;
78891;SDS011;68368;51.728;5.248;2023-03-24T05:42:04;9.40;;;2.30;;
78891;SDS011;68368;51.728;5.248;2023-03-24T05:44:10;8.90;;;2.10;;
78891;SDS011;68368;51.728;5.248;2023-03-24T05:46:15;9.60;;;1.90;;
78891;SDS011;68368;51.728;5.248;2023-03-24T05:48:18;12.50;;;2.80;;
78891;SDS011;68368;51.728;5.248;2023-03-24T05:50:23;8.90;;;2.50;;
78891;SDS011;68368;51.728;5.248;2023-03-24T05:52:28;8.10;;;1.70;;
78891;SDS011;68368;51.728;5.248;2023-03-24T05:54:32;7.30;;;2.00;;
78891;SDS011;68368;51.728;5.248;2023-03-24T05:56:36;7.20;;;2.20;;
78891;SDS011;68368;51.728;5.248;2023-03-24T05:58:39;8.90;;;2.20;;
78891;SDS011;68368;51.728;5.248;2023-03-24T06:00:43;7.70;;;1.60;;
78891;SDS011;68368;51.728;5.248;2023-03-24T06:02:47;10.60;;;1.80;;
78891;SDS011;68368;51.728;5.248;2023-03-24T06:04:51;7.30;;;1.90;;
78891;SDS011;68368;51.728;5.248;2023-03-24T06:06:54;8.60;;;1.90;;
78891;SDS011;68368;51.728;5.248;2023-03-24T06:08:58;9.30;;;2.20;;
78891;SDS011;68368;51.728;5.248;2023-03-24T06:11:04;11.50;;;2.20;;
78891;SDS011;68368;51.728;5.248;2023-03-24T06:13:09;6.30;;;1.60;;
78891;SDS011;68368;51.728;5.248;2023-03-24T06:15:14;7.10;;;1.80;;
78891;SDS011;68368;51.728;5.248;2023-03-24T06:17:17;8.30;;;2.10;;
78891;SDS011;68368;51.728;5.248;2023-03-24T06:19:20;12.40;;;2.10;;
78891;SDS011;68368;51.728;5.248;2023-03-24T06:21:23;7.20;;;2.30;;
78891;SDS011;68368;51.728;5.248;2023-03-24T06:23:27;8.70;;;1.80;;
78891;SDS011;68368;51.728;5.248;2023-03-24T06:25:30;6.50;;;1.90;;
78891;SDS011;68368;51.728;5.248;2023-03-24T06:27:37;10.60;;;2.20;;
78891;SDS011;68368;51.728;5.248;2023-03-24T06:29:45;9.40;;;1.60;;
78891;SDS011;68368;51.728;5.248;2023-03-24T06:31:49;10.10;;;2.20;;
78891;SDS011;68368;51.728;5.248;2023-03-24T06:33:55;8.40;;;2.30;;
78891;SDS011;68368;51.728;5.248;2023-03-24T06:35:58;9.00;;;2.10;;
78891;SDS011;68368;51.728;5.248;2023-03-24T06:38:02;6.50;;;1.80;;
78891;SDS011;68368;51.728;5.248;2023-03-24T06:40:07;8.90;;;1.90;;
78891;SDS011;68368;51.728;5.248;2023-03-24T06:42:12;10.30;;;1.80;;
78891;SDS011;68368;51.728;5.248;2023-03-24T06:44:15;12.40;;;2.30;;
78891;SDS011;68368;51.728;5.248;2023-03-24T06:46:18;10.30;;;2.30;;
78891;SDS011;68368;51.728;5.248;2023-03-24T06:48:22;11.10;;;2.10;;
78891;SDS011;68368;51.728;5.248;2023-03-24T06:50:26;7.70;;;1.70;;
78891;SDS011;68368;51.728;5.248;2023-03-24T06:52:29;10.80;;;2.00;;
78891;SDS011;68368;51.728;5.248;2023-03-24T06:54:32;7.20;;;2.00;;
78891;SDS011;68368;51.728;5.248;2023-03-24T06:56:35;9.10;;;2.00;;
78891;SDS011;68368;51.728;5.248;2023-03-24T06:58:42;11.10;;;2.10;;
78891;SDS011;68368;51.728;5.248;2023-03-24T07:00:47;9.00;;;1.60;;
78891;SDS011;68368;51.728;5.248;2023-03-24T07:02:53;9.50;;;2.00;;
78891;SDS011;68368;51.728;5.248;2023-03-24T07:04:58;8.00;;;1.60;;
78891;SDS011;68368;51.728;5.248;2023-03-24T07:07:01;9.50;;;2.10;;
78891;SDS011;68368;51.728;5.248;2023-03-24T07:09:04;13.90;;;2.80;;
78891;SDS011;68368;51.728;5.248;2023-03-24T07:11:07;7.40;;;1.80;;
78891;SDS011;68368;51.728;5.248;2023-03-24T07:13:11;11.30;;;2.40;;
78891;SDS011;68368;51.728;5.248;2023-03-24T07:15:14;9.60;;;2.30;;
78891;SDS011;68368;51.728;5.248;2023-03-24T07:17:19;6.90;;;1.80;;
78891;SDS011;68368;51.728;5.248;2023-03-24T07:19:22;11.40;;;1.60;;
78891;SDS011;68368;51.728;5.248;2023-03-24T07:21:26;10.60;;;1.90;;
78891;SDS011;68368;51.728;5.248;2023-03-24T07:23:29;9.20;;;2.00;;
78891;SDS011;68368;51.728;5.248;2023-03-24T07:25:33;12.40;;;1.90;;
78891;SDS011;68368;51.728;5.248;2023-03-24T07:27:36;9.60;;;2.00;;
78891;SDS011;68368;51.728;5.248;2023-03-24T07:29:39;12.50;;;2.30;;
78891;SDS011;68368;51.728;5.248;2023-03-24T07:31:43;5.70;;;2.10;;
78891;SDS011;68368;51.728;5.248;2023-03-24T07:33:46;13.40;;;2.50;;
78891;SDS011;68368;51.728;5.248;2023-03-24T07:35:55;7.50;;;1.50;;
78891;SDS011;68368;51.728;5.248;2023-03-24T07:38:00;7.00;;;1.60;;
78891;SDS011;68368;51.728;5.248;2023-03-24T07:40:07;9.00;;;2.00;;
78891;SDS011;68368;51.728;5.248;2023-03-24T07:42:11;6.90;;;1.70;;
78891;SDS011;68368;51.728;5.248;2023-03-24T07:44:15;9.60;;;2.20;;
78891;SDS011;68368;51.728;5.248;2023-03-24T07:46:23;14.80;;;2.40;;
78891;SDS011;68368;51.728;5.248;2023-03-24T07:48:27;14.50;;;2.10;;
78891;SDS011;68368;51.728;5.248;2023-03-24T07:50:30;11.00;;;2.40;;
78891;SDS011;68368;51.728;5.248;2023-03-24T07:52:34;11.40;;;2.00;;
78891;SDS011;68368;51.728;5.248;2023-03-24T07:54:38;9.10;;;1.70;;
78891;SDS011;68368;51.728;5.248;2023-03-24T07:56:41;4.90;;;1.50;;
78891;SDS011;68368;51.728;5.248;2023-03-24T07:58:44;9.00;;;2.00;;
78891;SDS011;68368;51.728;5.248;2023-03-24T08:00:48;7.70;;;2.30;;
78891;SDS011;68368;51.728;5.248;2023-03-24T08:02:51;8.10;;;2.10;;
78891;SDS011;68368;51.728;5.248;2023-03-24T08:05:03;9.70;;;2.40;;
78891;SDS011;68368;51.728;5.248;2023-03-24T08:07:20;16.40;;;2.80;;
78891;SDS011;68368;51.728;5.248;2023-03-24T08:09:23;9.40;;;1.90;;
78891;SDS011;68368;51.728;5.248;2023-03-24T08:11:27;9.50;;;2.20;;
78891;SDS011;68368;51.728;5.248;2023-03-24T08:13:30;9.50;;;1.80;;
78891;SDS011;68368;51.728;5.248;2023-03-24T08:15:33;6.80;;;1.30;;
78891;SDS011;68368;51.728;5.248;2023-03-24T08:17:36;10.10;;;1.90;;
78891;SDS011;68368;51.728;5.248;2023-03-24T08:19:40;8.70;;;1.80;;
78891;SDS011;68368;51.728;5.248;2023-03-24T08:21:43;8.10;;;1.90;;
78891;SDS011;68368;51.728;5.248;2023-03-24T08:23:46;9.80;;;2.20;;
78891;SDS011;68368;51.728;5.248;2023-03-24T08:25:50;10.10;;;2.00;;
78891;SDS011;68368;51.728;5.248;2023-03-24T08:27:53;8.60;;;2.00;;
78891;SDS011;68368;51.728;5.248;2023-03-24T08:29:57;5.70;;;1.50;;
78891;SDS011;68368;51.728;5.248;2023-03-24T08:32:01;5.90;;;1.80;;
78891;SDS011;68368;51.728;5.248;2023-03-24T08:34:04;5.90;;;1.40;;
78891;SDS011;68368;51.728;5.248;2023-03-24T08:36:08;8.20;;;1.80;;
78891;SDS011;68368;51.728;5.248;2023-03-24T08:38:12;5.50;;;1.60;;
78891;SDS011;68368;51.728;5.248;2023-03-24T08:40:16;12.90;;;2.10;;
78891;SDS011;68368;51.728;5.248;2023-03-24T08:42:21;9.40;;;1.80;;
78891;SDS011;68368;51.728;5.248;2023-03-24T08:44:25;8.10;;;1.70;;
78891;SDS011;68368;51.728;5.248;2023-03-24T08:46:28;16.00;;;3.60;;
78891;SDS011;68368;51.728;5.248;2023-03-24T08:48:31;7.00;;;2.00;;
78891;SDS011;68368;51.728;5.248;2023-03-24T08:50:35;8.90;;;2.00;;
78891;SDS011;68368;51.728;5.248;2023-03-24T08:52:42;9.90;;;1.80;;
78891;SDS011;68368;51.728;5.248;2023-03-24T08:54:46;10.80;;;2.00;;
78891;SDS011;68368;51.728;5.248;2023-03-24T08:56:49;9.00;;;1.90;;
78891;SDS011;68368;51.728;5.248;2023-03-24T08:58:53;6.60;;;2.00;;
78891;SDS011;68368;51.728;5.248;2023-03-24T09:00:57;11.20;;;2.00;;
78891;SDS011;68368;51.728;5.248;2023-03-24T09:03:01;9.20;;;2.40;;
78891;SDS011;68368;51.728;5.248;2023-03-24T09:05:04;6.40;;;1.90;;
78891;SDS011;68368;51.728;5.248;2023-03-24T09:07:08;8.00;;;2.00;;
78891;SDS011;68368;51.728;5.248;2023-03-24T09:09:11;6.00;;;1.90;;
78891;SDS011;68368;51.728;5.248;2023-03-24T09:11:16;8.90;;;1.80;;
78891;SDS011;68368;51.728;5.248;2023-03-24T09:13:21;5.50;;;1.50;;
78891;SDS011;68368;51.728;5.248;2023-03-24T09:15:25;8.00;;;2.10;;
78891;SDS011;68368;51.728;5.248;2023-03-24T09:17:29;7.30;;;1.90;;
78891;SDS011;68368;51.728;5.248;2023-03-24T09:19:32;8.80;;;2.20;;
78891;SDS011;68368;51.728;5.248;2023-03-24T09:21:35;7.80;;;2.00;;
78891;SDS011;68368;51.728;5.248;2023-03-24T09:23:40;10.10;;;2.00;;
78891;SDS011;68368;51.728;5.248;2023-03-24T09:25:43;9.30;;;2.10;;
78891;SDS011;68368;51.728;5.248;2023-03-24T09:27:48;8.20;;;2.30;;
78891;SDS011;68368;51.728;5.248;2023-03-24T09:29:51;9.90;;;2.20;;
78891;SDS011;68368;51.728;5.248;2023-03-24T09:31:55;7.80;;;2.20;;
78891;SDS011;68368;51.728;5.248;2023-03-24T09:33:58;5.60;;;1.20;;
78891;SDS011;68368;51.728;5.248;2023-03-24T09:36:05;8.00;;;1.80;;
78891;SDS011;68368;51.728;5.248;2023-03-24T09:38:10;6.10;;;1.40;;
78891;SDS011;68368;51.728;5.248;2023-03-24T09:40:16;9.40;;;2.10;;
78891;SDS011;68368;51.728;5.248;2023-03-24T09:42:22;10.40;;;2.30;;
78891;SDS011;68368;51.728;5.248;2023-03-24T09:44:29;9.80;;;1.70;;
78891;SDS011;68368;51.728;5.248;2023-03-24T09:46:38;10.70;;;2.30;;
78891;SDS011;68368;51.728;5.248;2023-03-24T09:48:46;9.30;;;1.60;;
78891;SDS011;68368;51.728;5.248;2023-03-24T09:50:53;7.60;;;1.80;;
78891;SDS011;68368;51.728;5.248;2023-03-24T09:53:09;8.30;;;1.80;;
78891;SDS011;68368;51.728;5.248;2023-03-24T09:55:26;7.70;;;2.00;;
78891;SDS011;68368;51.728;5.248;2023-03-24T09:57:33;5.80;;;1.50;;
78891;SDS011;68368;51.728;5.248;2023-03-24T09:59:40;3.70;;;1.40;;
78891;SDS011;68368;51.728;5.248;2023-03-24T10:01:46;8.80;;;2.20;;
78891;SDS011;68368;51.728;5.248;2023-03-24T10:03:56;4.60;;;1.80;;
78891;SDS011;68368;51.728;5.248;2023-03-24T10:06:00;5.50;;;2.00;;
78891;SDS011;68368;51.728;5.248;2023-03-24T10:08:10;5.40;;;2.00;;
78891;SDS011;68368;51.728;5.248;2023-03-24T10:10:23;6.70;;;2.70;;
78891;SDS011;68368;51.728;5.248;2023-03-24T10:12:38;4.80;;;1.60;;
78891;SDS011;68368;51.728;5.248;2023-03-24T10:14:52;5.40;;;1.50;;
78891;SDS011;68368;51.728;5.248;2023-03-24T10:17:07;4.00;;;1.40;;
78891;SDS011;68368;51.728;5.248;2023-03-24T10:19:23;8.10;;;1.90;;
78891;SDS011;68368;51.728;5.248;2023-03-24T10:21:39;7.60;;;1.90;;
78891;SDS011;68368;51.728;5.248;2023-03-24T10:23:52;5.50;;;1.70;;
78891;SDS011;68368;51.728;5.248;2023-03-24T10:26:02;6.30;;;1.90;;
78891;SDS011;68368;51.728;5.248;2023-03-24T10:28:11;4.30;;;1.70;;
78891;SDS011;68368;51.728;5.248;2023-03-24T10:30:21;5.10;;;1.60;;
78891;SDS011;68368;51.728;5.248;2023-03-24T10:32:31;5.10;;;1.40;;
78891;SDS011;68368;51.728;5.248;2023-03-24T10:34:36;6.20;;;1.70;;
78891;SDS011;68368;51.728;5.248;2023-03-24T10:36:42;7.10;;;2.30;;
78891;SDS011;68368;51.728;5.248;2023-03-24T10:38:46;5.00;;;2.00;;
78891;SDS011;68368;51.728;5.248;2023-03-24T10:40:52;9.10;;;2.40;;
78891;SDS011;68368;51.728;5.248;2023-03-24T10:42:56;9.00;;;2.60;;
78891;SDS011;68368;51.728;5.248;2023-03-24T10:45:03;6.60;;;2.60;;
78891;SDS011;68368;51.728;5.248;2023-03-24T10:47:14;7.50;;;2.40;;
78891;SDS011;68368;51.728;5.248;2023-03-24T10:51:26;5.70;;;2.20;;
78891;SDS011;68368;51.728;5.248;2023-03-24T10:53:32;8.30;;;2.70;;
78891;SDS011;68368;51.728;5.248;2023-03-24T10:55:36;10.80;;;3.10;;
78891;SDS011;68368;51.728;5.248;2023-03-24T10:57:41;9.40;;;2.50;;
78891;SDS011;68368;51.728;5.248;2023-03-24T10:59:49;7.20;;;2.20;;
78891;SDS011;68368;51.728;5.248;2023-03-24T11:02:02;10.80;;;3.10;;
78891;SDS011;68368;51.728;5.248;2023-03-24T11:04:17;7.70;;;2.80;;
78891;SDS011;68368;51.728;5.248;2023-03-24T11:06:21;9.30;;;2.40;;
78891;SDS011;68368;51.728;5.248;2023-03-24T11:08:26;9.70;;;2.80;;
78891;SDS011;68368;51.728;5.248;2023-03-24T11:10:33;8.40;;;2.60;;
78891;SDS011;68368;51.728;5.248;2023-03-24T11:12:37;10.50;;;2.90;;
78891;SDS011;68368;51.728;5.248;2023-03-24T11:14:48;8.30;;;2.70;;
78891;SDS011;68368;51.728;5.248;2023-03-24T11:16:51;9.80;;;2.80;;
78891;SDS011;68368;51.728;5.248;2023-03-24T11:19:03;10.20;;;2.90;;
78891;SDS011;68368;51.728;5.248;2023-03-24T11:21:07;8.50;;;2.30;;
78891;SDS011;68368;51.728;5.248;2023-03-24T11:23:12;8.00;;;2.20;;
78891;SDS011;68368;51.728;5.248;2023-03-24T11:25:19;4.70;;;1.30;;
78891;SDS011;68368;51.728;5.248;2023-03-24T11:27:25;5.00;;;1.90;;
78891;SDS011;68368;51.728;5.248;2023-03-24T11:29:32;5.10;;;1.70;;
78891;SDS011;68368;51.728;5.248;2023-03-24T11:31:41;7.00;;;1.50;;
78891;SDS011;68368;51.728;5.248;2023-03-24T11:33:54;4.50;;;1.80;;
78891;SDS011;68368;51.728;5.248;2023-03-24T11:36:00;3.10;;;1.40;;
78891;SDS011;68368;51.728;5.248;2023-03-24T11:38:13;3.30;;;1.30;;
78891;SDS011;68368;51.728;5.248;2023-03-24T11:40:20;6.30;;;1.40;;
78891;SDS011;68368;51.728;5.248;2023-03-24T11:44:30;4.50;;;1.70;;
78891;SDS011;68368;51.728;5.248;2023-03-24T11:46:42;4.70;;;1.80;;
78891;SDS011;68368;51.728;5.248;2023-03-24T11:48:50;5.60;;;2.10;;
78891;SDS011;68368;51.728;5.248;2023-03-24T11:50:58;8.10;;;2.00;;
78891;SDS011;68368;51.728;5.248;2023-03-24T11:53:05;8.60;;;1.90;;
78891;SDS011;68368;51.728;5.248;2023-03-24T11:55:14;5.50;;;1.70;;
78891;SDS011;68368;51.728;5.248;2023-03-24T11:59:32;6.30;;;2.00;;
78891;SDS011;68368;51.728;5.248;2023-03-24T12:01:41;5.90;;;1.70;;
78891;SDS011;68368;51.728;5.248;2023-03-24T12:09:04;5.70;;;1.60;;
78891;SDS011;68368;51.728;5.248;2023-03-24T12:11:15;7.00;;;1.80;;
78891;SDS011;68368;51.728;5.248;2023-03-24T12:13:29;6.60;;;1.50;;
78891;SDS011;68368;51.728;5.248;2023-03-24T12:15:38;7.00;;;1.70;;
78891;SDS011;68368;51.728;5.248;2023-03-24T12:18:03;6.50;;;1.60;;
78891;SDS011;68368;51.728;5.248;2023-03-24T12:20:20;9.30;;;1.90;;
78891;SDS011;68368;51.728;5.248;2023-03-24T12:22:31;7.60;;;2.00;;
78891;SDS011;68368;51.728;5.248;2023-03-24T12:24:49;6.80;;;1.60;;
78891;SDS011;68368;51.728;5.248;2023-03-24T12:27:06;6.20;;;1.50;;
78891;SDS011;68368;51.728;5.248;2023-03-24T12:29:29;6.00;;;1.50;;
78891;SDS011;68368;51.728;5.248;2023-03-24T12:31:49;5.80;;;1.80;;
78891;SDS011;68368;51.728;5.248;2023-03-24T12:34:06;2.30;;;1.20;;
78891;SDS011;68368;51.728;5.248;2023-03-24T12:36:31;4.90;;;1.00;;
78891;SDS011;68368;51.728;5.248;2023-03-24T12:38:50;4.90;;;1.20;;
78891;SDS011;68368;51.728;5.248;2023-03-24T12:41:15;5.40;;;1.40;;
78891;SDS011;68368;51.728;5.248;2023-03-24T12:43:39;6.40;;;1.90;;
78891;SDS011;68368;51.728;5.248;2023-03-24T12:45:49;4.80;;;1.60;;
78891;SDS011;68368;51.728;5.248;2023-03-24T12:48:10;7.40;;;1.70;;
78891;SDS011;68368;51.728;5.248;2023-03-24T12:50:24;4.30;;;1.30;;
78891;SDS011;68368;51.728;5.248;2023-03-24T12:55:00;4.40;;;1.50;;
78891;SDS011;68368;51.728;5.248;2023-03-24T12:57:09;8.20;;;2.10;;
78891;SDS011;68368;51.728;5.248;2023-03-24T12:59:17;5.40;;;1.70;;
78891;SDS011;68368;51.728;5.248;2023-03-24T13:01:25;4.50;;;1.80;;
78891;SDS011;68368;51.728;5.248;2023-03-24T13:03:34;4.50;;;1.70;;
78891;SDS011;68368;51.728;5.248;2023-03-24T13:05:42;6.90;;;1.80;;
78891;SDS011;68368;51.728;5.248;2023-03-24T13:07:51;6.30;;;2.00;;
78891;SDS011;68368;51.728;5.248;2023-03-24T13:09:59;2.70;;;1.30;;